createdAt,value
2019-04-11T00:00:31.310Z,100986.28
2019-04-11T00:03:00.812Z,100990.06
2019-04-11T00:05:30.705Z,100991.53
2019-04-11T00:08:00.079Z,100993.86
2019-04-11T00:10:29.249Z,101000.61
2019-04-11T00:12:59.081Z,101002.02
2019-04-11T00:15:28.786Z,101002.08
2019-04-11T00:17:58.519Z,100999.51
2019-04-11T00:20:28.985Z,101001.75
2019-04-11T00:22:58.001Z,101009.33
2019-04-11T00:25:27.481Z,101002.83
2019-04-11T00:27:57.276Z,101008.67
2019-04-11T00:30:26.277Z,101009.67
2019-04-11T00:32:56.061Z,101005.88
2019-04-11T00:35:25.904Z,101006.34
2019-04-11T00:37:55.363Z,101016.61
2019-04-11T00:40:24.872Z,101016.36
2019-04-11T00:42:54.701Z,101023.48
2019-04-11T00:45:23.493Z,101017.03
2019-04-11T00:47:53.179Z,101019.27
2019-04-11T00:50:23.246Z,101024.16
2019-04-11T00:52:52.167Z,101026.10
2019-04-11T00:55:21.752Z,101020.06
2019-04-11T00:57:51.032Z,101023.71
2019-04-11T01:00:20.882Z,101022.56
2019-04-11T01:02:49.666Z,101023.09
2019-04-11T01:05:18.664Z,101022.77
2019-04-11T01:07:47.240Z,101031.70
2019-04-11T01:10:16.219Z,101029.19
2019-04-11T01:12:44.909Z,101032.83
2019-04-11T01:15:15.725Z,101033.81
2019-04-11T01:17:45.372Z,101033.08
2019-04-11T01:20:15.376Z,101036.71
2019-04-11T01:22:44.543Z,101030.22
2019-04-11T01:25:13.652Z,101037.78
2019-04-11T01:27:43.874Z,101034.39
2019-04-11T01:30:15.832Z,101032.78
2019-04-11T01:32:44.559Z,101034.18
2019-04-11T01:35:13.142Z,101040.01
2019-04-11T01:37:41.969Z,101031.25
2019-04-11T01:40:11.796Z,101038.39
2019-04-11T01:42:41.660Z,101040.25
2019-04-11T01:45:12.140Z,101039.84
2019-04-11T01:47:48.299Z,101029.00
2019-04-11T01:50:18.959Z,101038.76
2019-04-11T01:52:48.805Z,101044.58
2019-04-11T01:55:18.527Z,101043.79
2019-04-11T01:57:47.144Z,101046.02
2019-04-11T02:00:24.147Z,101045.23
2019-04-11T02:02:54.927Z,101049.20
2019-04-11T02:05:27.154Z,101049.66
2019-04-11T02:07:56.166Z,101049.32
2019-04-11T02:10:24.742Z,101049.85
2019-04-11T02:12:53.536Z,101056.12
2019-04-11T02:15:24.091Z,101056.77
2019-04-11T02:17:53.603Z,101060.41
2019-04-11T02:20:23.009Z,101067.06
2019-04-11T02:22:54.861Z,101068.45
2019-04-11T02:25:25.604Z,101071.22
2019-04-11T02:27:54.358Z,101073.11
2019-04-11T02:30:25.396Z,101078.05
2019-04-11T02:32:55.955Z,101077.30
2019-04-11T02:35:24.865Z,101074.73
2019-04-11T02:37:54.947Z,101079.27
2019-04-11T02:40:24.575Z,101080.13
2019-04-11T02:42:54.857Z,101081.11
2019-04-11T02:45:36.275Z,101071.52
2019-04-11T02:47:56.418Z,101076.84
2019-04-11T02:50:26.535Z,101074.80
2019-04-11T02:52:56.637Z,101081.52
2019-04-11T02:55:25.427Z,101080.69
2019-04-11T02:57:56.678Z,101084.84
2019-04-11T03:00:26.680Z,101078.76
2019-04-11T03:02:56.914Z,101081.86
2019-04-11T03:05:26.895Z,101084.57
2019-04-11T03:07:56.416Z,101085.52
2019-04-11T03:10:27.123Z,101087.36
2019-04-11T03:12:58.884Z,101085.66
2019-04-11T03:15:43.122Z,101082.19
2019-04-11T03:18:02.285Z,101088.80
2019-04-11T03:20:34.487Z,101089.20
2019-04-11T03:23:04.871Z,101088.75
2019-04-11T03:25:30.649Z,101091.89
2019-04-11T03:28:01.584Z,101098.91
2019-04-11T03:30:46.458Z,101105.48
2019-04-11T03:33:58.219Z,101099.70
2019-04-11T03:36:27.600Z,101092.72
2019-04-11T03:38:27.674Z,101101.97
2019-04-11T03:40:50.458Z,101105.06
2019-04-11T03:43:16.450Z,101097.66
2019-04-11T03:45:48.054Z,101105.63
2019-04-11T03:48:21.876Z,101104.41
2019-04-11T03:50:39.270Z,101107.98
2019-04-11T03:53:10.993Z,101110.63
2019-04-11T03:55:39.201Z,101115.05
2019-04-11T03:58:08.967Z,101112.79
2019-04-11T04:00:42.513Z,101113.77
2019-04-11T04:03:11.203Z,101115.61
2019-04-11T04:05:41.982Z,101117.38
2019-04-11T04:08:10.869Z,101118.77
2019-04-11T04:10:42.275Z,101121.45
2019-04-11T04:13:16.837Z,101122.73
2019-04-11T04:16:00.210Z,101132.02
2019-04-11T04:18:29.891Z,101127.67
2019-04-11T04:21:09.165Z,101131.22
2019-04-11T04:23:39.123Z,101128.23
2019-04-11T04:26:11.611Z,101128.19
2019-04-11T04:28:40.651Z,101132.19
2019-04-11T04:31:11.222Z,101138.86
2019-04-11T04:33:40.049Z,101143.73
2019-04-11T04:36:11.079Z,101140.22
2019-04-11T04:38:41.465Z,101144.64
2019-04-11T04:41:22.465Z,101146.06
2019-04-11T04:43:44.319Z,101156.23
2019-04-11T04:46:29.966Z,101157.05
2019-04-11T04:48:45.349Z,101163.23
2019-04-11T04:51:16.181Z,101164.62
2019-04-11T04:53:45.226Z,101169.03
2019-04-11T04:56:16.745Z,101169.03
2019-04-11T04:58:46.522Z,101167.81
2019-04-11T05:01:15.634Z,101173.96
2019-04-11T05:03:46.641Z,101177.89
2019-04-11T05:06:16.342Z,101177.41
2019-04-11T05:08:45.267Z,101179.14
2019-04-11T05:11:14.130Z,101183.98
2019-04-11T05:13:46.320Z,101183.98
2019-04-11T05:16:17.554Z,101183.45
2019-04-11T05:18:43.957Z,101187.84
2019-04-11T05:21:12.907Z,101189.95
2019-04-11T05:23:41.787Z,101182.45
2019-04-11T05:26:10.969Z,101191.11
2019-04-11T05:28:39.591Z,101191.88
2019-04-11T05:31:08.180Z,101196.19
2019-04-11T05:33:37.173Z,101189.41
2019-04-11T05:36:06.002Z,101188.09
2019-04-11T05:38:35.949Z,101185.50
2019-04-11T05:41:09.661Z,101186.39
2019-04-11T05:43:37.330Z,101195.63
2019-04-11T05:46:21.921Z,101197.84
2019-04-11T05:48:57.848Z,101195.59
2019-04-11T05:51:23.852Z,101199.57
2019-04-11T05:53:55.545Z,101197.78
2019-04-11T05:56:26.088Z,101196.90
2019-04-11T05:58:56.326Z,101204.42
2019-04-11T06:01:36.308Z,101197.88
2019-04-11T06:04:16.129Z,101205.81
2019-04-11T06:06:46.554Z,101207.92
2019-04-11T06:09:16.886Z,101211.28
2019-04-11T06:11:55.766Z,101211.70
2019-04-11T06:14:25.163Z,101209.20
2019-04-11T06:16:56.205Z,101215.39
2019-04-11T06:19:28.232Z,101219.69
2019-04-11T06:22:01.522Z,101214.23
2019-04-11T06:24:48.567Z,101219.73
2019-04-11T06:27:22.152Z,101226.36
2019-04-11T06:30:09.564Z,101221.59
2019-04-11T06:32:49.188Z,101227.27
2019-04-11T06:35:37.847Z,101224.19
2019-04-11T06:38:10.826Z,101222.97
2019-04-11T06:40:59.982Z,101226.27
2019-04-11T06:43:34.195Z,101230.48
2019-04-11T06:46:16.714Z,101226.56
2019-04-11T06:49:00.225Z,101229.86
2019-04-11T06:51:30.496Z,101230.89
2019-04-11T06:54:18.962Z,101232.77
2019-04-11T06:56:50.586Z,101239.49
2019-04-11T06:59:24.041Z,101233.16
2019-04-11T07:02:07.553Z,101241.41
2019-04-11T07:04:37.772Z,101242.61
2019-04-11T07:07:09.901Z,101247.48
2019-04-11T07:09:45.013Z,101245.35
2019-04-11T07:12:18.159Z,101247.58
2019-04-11T07:14:48.877Z,101250.65
2019-04-11T07:17:37.028Z,101254.06
2019-04-11T07:20:27.349Z,101247.75
2019-04-11T07:23:15.645Z,101238.98
2019-04-11T07:25:53.813Z,101242.88
2019-04-11T07:28:25.687Z,101238.69
2019-04-11T07:31:07.972Z,101236.66
2019-04-11T07:33:54.655Z,101236.52
2019-04-11T07:36:41.385Z,101245.38
2019-04-11T07:39:14.541Z,101245.63
2019-04-11T07:41:47.981Z,101244.28
2019-04-11T07:44:22.357Z,101253.70
2019-04-11T07:46:53.625Z,101245.71
2019-04-11T07:49:39.080Z,101244.73
2019-04-11T07:52:15.546Z,101252.54
2019-04-11T07:54:45.683Z,101253.28
2019-04-11T07:57:32.423Z,101257.22
2019-04-11T08:00:03.754Z,101260.84
2019-04-11T08:02:53.294Z,101260.13
2019-04-11T08:05:51.513Z,101258.45
2019-04-11T08:08:27.938Z,101255.69
2019-04-11T08:10:58.258Z,101263.87
2019-04-11T08:13:36.724Z,101254.41
2019-04-11T08:16:24.050Z,101255.31
2019-04-11T08:19:01.313Z,101258.59
2019-04-11T08:21:47.985Z,101267.50
2019-04-11T08:24:34.354Z,101263.50
2019-04-11T08:27:09.398Z,101262.37
2019-04-11T08:29:38.193Z,101259.66
2019-04-11T08:32:09.653Z,101273.89
2019-04-11T08:34:39.991Z,101272.20
2019-04-11T08:37:13.874Z,101271.87
2019-04-11T08:39:49.091Z,101273.00
2019-04-11T08:42:25.444Z,101275.03
2019-04-11T08:44:54.331Z,101275.53
2019-04-11T08:47:22.966Z,101277.09
2019-04-11T08:49:52.266Z,101283.02
2019-04-11T08:52:24.331Z,101279.95
2019-04-11T08:55:00.269Z,101273.80
2019-04-11T08:57:41.569Z,101273.52
2019-04-11T09:00:15.675Z,101273.59
2019-04-11T09:02:44.961Z,101275.13
2019-04-11T09:05:22.716Z,101272.08
2019-04-11T09:08:00.141Z,101274.35
2019-04-11T09:10:50.745Z,101270.86
2019-04-11T09:13:28.160Z,101271.91
2019-04-11T09:16:01.450Z,101266.98
2019-04-11T09:18:32.356Z,101264.18
2019-04-11T09:21:20.281Z,101277.09
2019-04-11T09:23:50.119Z,101269.58
2019-04-11T09:26:29.441Z,101266.36
2019-04-11T09:28:58.124Z,101273.66
2019-04-11T09:31:35.855Z,101276.11
2019-04-11T09:34:09.260Z,101270.70
2019-04-11T09:36:45.462Z,101276.88
2019-04-11T09:39:33.074Z,101271.64
2019-04-11T09:42:13.402Z,101274.98
2019-04-11T09:44:49.332Z,101274.96
2019-04-11T09:47:28.919Z,101275.02
2019-04-11T09:50:18.953Z,101284.46
2019-04-11T09:52:49.587Z,101268.98
2019-04-11T09:55:29.111Z,101269.81
2019-04-11T09:58:01.212Z,101262.94
2019-04-11T10:00:39.124Z,101266.31
2019-04-11T10:03:15.887Z,101275.61
2019-04-11T10:05:50.294Z,101270.22
2019-04-11T10:08:22.499Z,101267.31
2019-04-11T10:11:11.185Z,101266.52
2019-04-11T10:13:51.194Z,101268.64
2019-04-11T10:16:26.297Z,101263.67
2019-04-11T10:18:57.794Z,101267.01
2019-04-11T10:21:29.006Z,101263.58
2019-04-11T10:24:05.244Z,101258.77
2019-04-11T10:26:36.140Z,101260.90
2019-04-11T10:29:06.529Z,101263.94
2019-04-11T10:31:36.814Z,101266.45
2019-04-11T10:34:23.711Z,101260.06
2019-04-11T10:36:54.018Z,101264.23
2019-04-11T10:39:24.975Z,101271.21
2019-04-11T10:41:56.414Z,101261.86
2019-04-11T10:44:33.984Z,101268.00
2019-04-11T10:47:14.548Z,101265.78
2019-04-11T10:49:52.614Z,101269.36
2019-04-11T10:52:26.717Z,101263.58
2019-04-11T10:55:05.189Z,101261.03
2019-04-11T10:57:38.618Z,101262.88
2019-04-11T11:00:20.919Z,101262.58
2019-04-11T11:03:11.696Z,101257.51
2019-04-11T11:05:49.339Z,101258.76
2019-04-11T11:08:19.608Z,101264.98
2019-04-11T11:10:50.022Z,101262.23
2019-04-11T11:13:45.797Z,101263.05
2019-04-11T11:16:15.974Z,101267.83
2019-04-11T11:19:24.589Z,101265.61
2019-04-11T11:21:35.573Z,101274.00
2019-04-11T11:24:22.107Z,101274.47
2019-04-11T11:26:53.672Z,101281.60
2019-04-11T11:29:32.420Z,101277.77
2019-04-11T11:32:11.178Z,101279.44
2019-04-11T11:34:42.245Z,101278.63
2019-04-11T11:37:13.133Z,101283.50
2019-04-11T11:40:10.566Z,101283.42
2019-04-11T11:42:54.440Z,101275.38
2019-04-11T11:45:29.810Z,101276.03
2019-04-11T11:48:14.998Z,101275.16
2019-04-11T11:50:42.717Z,101280.91
2019-04-11T11:53:32.845Z,101271.11
2019-04-11T11:56:05.396Z,101266.80
2019-04-11T11:58:42.344Z,101269.04
2019-04-11T12:01:11.684Z,101270.19
2019-04-11T12:03:50.758Z,101273.09
2019-04-11T12:06:25.233Z,101269.88
2019-04-11T12:09:12.109Z,101267.05
2019-04-11T12:11:43.354Z,101270.88
2019-04-11T12:14:32.753Z,101266.19
2019-04-11T12:17:06.799Z,101256.15
2019-04-11T12:19:47.624Z,101260.80
2019-04-11T12:22:08.429Z,101256.67
2019-04-11T12:24:43.315Z,101256.97
2019-04-11T12:27:16.346Z,101269.15
2019-04-11T12:30:05.842Z,101261.28
2019-04-11T12:32:36.830Z,101270.89
2019-04-11T12:35:26.293Z,101266.27
2019-04-11T12:37:57.895Z,101267.57
2019-04-11T12:40:28.205Z,101261.52
2019-04-11T12:42:59.331Z,101267.07
2019-04-11T12:45:35.256Z,101261.90
2019-04-11T12:48:04.427Z,101263.24
2019-04-11T12:50:52.672Z,101267.98
2019-04-11T12:53:22.833Z,101271.23
2019-04-11T12:55:53.045Z,101261.44
2019-04-11T12:58:29.627Z,101268.90
2019-04-11T13:01:16.462Z,101267.67
2019-04-11T13:03:46.845Z,101259.21
2019-04-11T13:06:34.808Z,101263.25
2019-04-11T13:09:10.086Z,101257.00
2019-04-11T13:11:43.282Z,101262.62
2019-04-11T13:14:31.373Z,101245.55
2019-04-11T13:17:01.656Z,101246.44
2019-04-11T13:19:43.541Z,101245.80
2019-04-11T13:22:13.789Z,101235.73
2019-04-11T13:24:47.042Z,101246.70
2019-04-11T13:27:17.363Z,101237.69
2019-04-11T13:30:04.806Z,101232.15
2019-04-11T13:32:45.800Z,101242.98
2019-04-11T13:35:16.302Z,101247.09
2019-04-11T13:38:02.899Z,101247.20
2019-04-11T13:40:46.275Z,101241.67
2019-04-11T13:43:18.091Z,101246.98
2019-04-11T13:45:55.310Z,101243.92
2019-04-11T13:48:44.264Z,101247.61
2019-04-11T13:51:32.095Z,101241.23
2019-04-11T13:54:19.081Z,101242.09
2019-04-11T13:56:55.174Z,101242.67
2019-04-11T13:59:34.784Z,101241.42
2019-04-11T14:02:17.100Z,101243.37
2019-04-11T14:04:50.796Z,101240.59
2019-04-11T14:07:27.044Z,101222.64
2019-04-11T14:09:59.114Z,101222.64
2019-04-11T14:12:33.332Z,101241.86
2019-04-11T14:15:05.953Z,101228.16
2019-04-11T14:17:35.058Z,101230.66
2019-04-11T14:20:11.570Z,101231.67
2019-04-11T14:22:43.471Z,101225.91
2019-04-11T14:25:16.552Z,101227.99
2019-04-11T14:27:46.934Z,101227.02
2019-04-11T14:30:32.691Z,101228.98
2019-04-11T14:33:01.552Z,101219.31
2019-04-11T14:35:40.811Z,101232.12
2019-04-11T14:38:11.545Z,101223.19
2019-04-11T14:41:01.990Z,101227.45
2019-04-11T14:43:32.388Z,101226.01
2019-04-11T14:46:08.590Z,101217.09
2019-04-11T14:48:42.006Z,101218.45
2019-04-11T14:51:15.950Z,101222.97
2019-04-11T14:53:57.218Z,101215.49
2019-04-11T14:56:30.445Z,101217.52
2019-04-11T14:59:06.898Z,101222.22
2019-04-11T15:01:35.747Z,101223.05
2019-04-11T15:04:21.323Z,101214.32
2019-04-11T15:07:00.293Z,101211.86
2019-04-11T15:09:48.855Z,101211.70
2019-04-11T15:12:19.620Z,101215.64
2019-04-11T15:14:51.812Z,101220.86
2019-04-11T15:17:24.325Z,101209.00
2019-04-11T15:19:53.964Z,101206.92
2019-04-11T15:22:30.236Z,101207.40
2019-04-11T15:25:00.688Z,101206.06
2019-04-11T15:27:38.554Z,101202.19
2019-04-11T15:30:11.485Z,101202.03
2019-04-11T15:32:47.716Z,101208.67
2019-04-11T15:35:16.703Z,101210.98
2019-04-11T15:38:03.401Z,101215.33
2019-04-11T15:40:32.016Z,101220.92
2019-04-11T15:43:02.240Z,101222.03
2019-04-11T15:45:47.652Z,101226.45
2019-04-11T15:48:23.575Z,101226.74
2019-04-11T15:51:10.081Z,101217.53
2019-04-11T15:53:46.488Z,101220.77
2019-04-11T15:56:33.230Z,101224.56
2019-04-11T15:59:06.483Z,101230.05
2019-04-11T16:01:53.089Z,101230.56
2019-04-11T16:04:29.572Z,101233.19
2019-04-11T16:07:12.696Z,101242.43
2019-04-11T16:09:44.115Z,101237.06
2019-04-11T16:12:16.344Z,101238.44
2019-04-11T16:14:45.008Z,101238.89
2019-04-11T16:17:31.492Z,101243.12
2019-04-11T16:20:01.393Z,101240.86
2019-04-11T16:22:43.965Z,101240.47
2019-04-11T16:25:14.517Z,101244.13
2019-04-11T16:28:00.764Z,101246.20
2019-04-11T16:30:31.031Z,101239.56
2019-04-11T16:33:07.094Z,101243.84
2019-04-11T16:35:43.377Z,101238.50
2019-04-11T16:38:13.599Z,101244.66
2019-04-11T16:41:00.233Z,101243.99
2019-04-11T16:43:29.116Z,101251.75
2019-04-11T16:46:02.167Z,101253.53
2019-04-11T16:48:30.893Z,101256.02
2019-04-11T16:50:59.648Z,101249.91
2019-04-11T16:53:28.298Z,101259.75
2019-04-11T16:55:56.894Z,101258.73
2019-04-11T16:58:25.825Z,101258.54
2019-04-11T17:00:54.466Z,101265.16
2019-04-11T17:03:25.146Z,101257.80
2019-04-11T17:06:06.896Z,101271.02
2019-04-11T17:08:51.602Z,101262.16
2019-04-11T17:11:20.915Z,101265.69
2019-04-11T17:13:49.512Z,101271.27
2019-04-11T17:16:18.403Z,101265.72
2019-04-11T17:18:47.177Z,101269.56
2019-04-11T17:21:16.030Z,101276.16
2019-04-11T17:23:47.002Z,101269.94
2019-04-11T17:26:15.074Z,101274.25
2019-04-11T17:28:43.823Z,101271.29
2019-04-11T17:31:13.090Z,101272.70
2019-04-11T17:33:41.671Z,101269.75
2019-04-11T17:36:10.243Z,101279.30
2019-04-11T17:38:39.297Z,101276.24
2019-04-11T17:41:10.890Z,101280.47
2019-04-11T17:43:38.245Z,101276.65
2019-04-11T17:46:07.065Z,101281.31
2019-04-11T17:48:36.020Z,101283.89
2019-04-11T17:51:05.652Z,101287.91
2019-04-11T17:53:34.489Z,101292.35
2019-04-11T17:56:03.394Z,101291.37
2019-04-11T17:58:31.986Z,101295.20
2019-04-11T18:01:05.157Z,101301.34
2019-04-11T18:03:32.763Z,101298.67
2019-04-11T18:06:01.416Z,101305.81
2019-04-11T18:08:30.010Z,101308.27
2019-04-11T18:10:58.701Z,101309.48
2019-04-11T18:13:30.602Z,101305.83
2019-04-11T18:16:00.832Z,101315.92
2019-04-11T18:18:28.005Z,101312.27
2019-04-11T18:20:56.614Z,101314.18
2019-04-11T18:23:25.385Z,101317.19
2019-04-11T18:25:54.507Z,101322.34
2019-04-11T18:28:23.282Z,101323.91
2019-04-11T18:30:54.010Z,101317.33
2019-04-11T18:33:23.715Z,101330.66
2019-04-11T18:35:53.934Z,101330.61
2019-04-11T18:38:22.989Z,101329.91
2019-04-11T18:40:51.694Z,101333.24
2019-04-11T18:43:20.341Z,101333.31
2019-04-11T18:45:48.924Z,101341.98
2019-04-11T18:48:17.778Z,101342.98
2019-04-11T18:50:46.493Z,101343.65
2019-04-11T18:53:15.396Z,101346.02
2019-04-11T18:55:44.157Z,101343.58
2019-04-11T18:58:13.109Z,101346.05
2019-04-11T19:00:42.359Z,101345.91
2019-04-11T19:03:11.186Z,101339.57
2019-04-11T19:05:42.794Z,101348.30
2019-04-11T19:08:12.859Z,101352.78
2019-04-11T19:10:42.883Z,101350.53
2019-04-11T19:13:12.082Z,101353.22
2019-04-11T19:15:41.086Z,101353.23
2019-04-11T19:18:09.719Z,101358.56
2019-04-11T19:20:38.654Z,101356.77
2019-04-11T19:23:07.950Z,101358.51
2019-04-11T19:25:37.399Z,101357.02
2019-04-11T19:28:06.150Z,101359.44
2019-04-11T19:30:34.769Z,101364.95
2019-04-11T19:33:03.473Z,101362.50
2019-04-11T19:35:32.529Z,101356.95
2019-04-11T19:38:01.626Z,101366.11
2019-04-11T19:40:30.520Z,101363.81
2019-04-11T19:42:59.256Z,101365.68
2019-04-11T19:45:27.868Z,101361.67
2019-04-11T19:47:56.557Z,101363.02
2019-04-11T19:50:28.749Z,101365.21
2019-04-11T19:52:55.973Z,101370.05
2019-04-11T19:55:26.284Z,101361.11
2019-04-11T19:57:55.705Z,101362.41
2019-04-11T20:00:25.049Z,101365.73
2019-04-11T20:02:54.118Z,101365.73
2019-04-11T20:05:23.448Z,101365.14
2019-04-11T20:07:52.024Z,101367.38
2019-04-11T20:10:21.057Z,101368.12
2019-04-11T20:12:49.906Z,101365.36
2019-04-11T20:15:18.562Z,101366.95
2019-04-11T20:17:51.079Z,101371.22
2019-04-11T20:20:18.158Z,101368.05
2019-04-11T20:22:58.350Z,101367.53
2019-04-11T20:25:17.471Z,101362.89
2019-04-11T20:27:50.252Z,101357.84
2019-04-11T20:30:16.920Z,101357.57
2019-04-11T20:32:45.511Z,101366.62
2019-04-11T20:35:14.111Z,101363.81
2019-04-11T20:37:44.713Z,101364.94
2019-04-11T20:40:17.327Z,101362.50
2019-04-11T20:42:43.867Z,101350.89
2019-04-11T20:45:12.883Z,101357.99
2019-04-11T20:47:42.803Z,101362.35
2019-04-11T20:50:11.382Z,101362.27
2019-04-11T20:52:39.959Z,101361.69
2019-04-11T20:55:09.771Z,101358.33
2019-04-11T20:57:40.429Z,101362.84
2019-04-11T21:00:12.422Z,101367.02
2019-04-11T21:02:41.317Z,101362.75
2019-04-11T21:05:11.354Z,101369.17
2019-04-11T21:07:40.035Z,101371.16
2019-04-11T21:10:08.911Z,101367.17
2019-04-11T21:12:37.996Z,101369.78
2019-04-11T21:15:08.495Z,101371.94
2019-04-11T21:17:37.081Z,101373.34
2019-04-11T21:20:07.227Z,101372.48
2019-04-11T21:22:35.909Z,101380.84
2019-04-11T21:25:06.019Z,101379.19
2019-04-11T21:27:34.585Z,101380.02
2019-04-11T21:30:03.837Z,101380.43
2019-04-11T21:32:32.694Z,101378.91
2019-04-11T21:35:02.348Z,101381.85
2019-04-11T21:37:31.743Z,101382.19
2019-04-11T21:40:00.449Z,101382.07
2019-04-11T21:42:29.157Z,101386.80
2019-04-11T21:44:58.490Z,101390.23
2019-04-11T21:47:27.738Z,101393.22
2019-04-11T21:49:57.014Z,101386.52
2019-04-11T21:52:26.079Z,101391.70
2019-04-11T21:54:54.733Z,101396.50
2019-04-11T21:57:23.673Z,101395.05
2019-04-11T21:59:52.557Z,101400.57
2019-04-11T22:02:24.012Z,101403.81
2019-04-11T22:04:51.555Z,101401.70
2019-04-11T22:07:20.512Z,101401.38
2019-04-11T22:09:49.292Z,101402.31
2019-04-11T22:12:18.323Z,101399.28
2019-04-11T22:14:46.903Z,101400.59
2019-04-11T22:17:16.154Z,101390.45
2019-04-11T22:19:46.556Z,101388.69
2019-04-11T22:22:15.163Z,101387.10
2019-04-11T22:24:43.824Z,101383.72
2019-04-11T22:27:12.403Z,101385.75
2019-04-11T22:29:41.008Z,101386.02
2019-04-11T22:32:09.581Z,101384.61
2019-04-11T22:34:45.570Z,101385.42
2019-04-11T22:37:14.216Z,101391.93
2019-04-11T22:39:42.843Z,101395.38
2019-04-11T22:42:11.656Z,101401.94
2019-04-11T22:44:41.160Z,101394.69
2019-04-11T22:47:09.764Z,101396.34
2019-04-11T22:49:39.371Z,101396.61
2019-04-11T22:52:11.310Z,101399.05
2019-04-11T22:54:41.159Z,101398.50
2019-04-11T22:57:12.215Z,101394.47
2019-04-11T22:59:44.028Z,101400.11
2019-04-11T23:02:17.070Z,101402.22
2019-04-11T23:04:47.159Z,101402.63
2019-04-11T23:07:17.923Z,101403.41
2019-04-11T23:09:48.781Z,101400.20
2019-04-11T23:12:16.805Z,101395.30
2019-04-11T23:14:45.801Z,101395.30
2019-04-11T23:17:14.901Z,101386.86
2019-04-11T23:19:44.099Z,101389.83
2019-04-11T23:22:13.334Z,101394.69
2019-04-11T23:24:42.274Z,101398.19
2019-04-11T23:27:11.065Z,101393.27
2019-04-11T23:29:39.811Z,101396.72
2019-04-11T23:32:08.464Z,101395.01
2019-04-11T23:34:37.350Z,101401.11
2019-04-11T23:37:05.958Z,101398.86
2019-04-11T23:39:34.591Z,101406.43
2019-04-11T23:42:03.533Z,101404.17
2019-04-11T23:44:32.292Z,101404.17
2019-04-11T23:47:00.856Z,101413.86
2019-04-11T23:49:29.693Z,101415.28
2019-04-11T23:51:58.408Z,101416.14
2019-04-11T23:54:29.187Z,101415.33
2019-04-11T23:57:00.535Z,101417.06
2019-04-11T23:59:32.161Z,101414.87
